Flight Track Log - Related Links

Times and Time Zones

All times are in EST time to prevent confusion due to time zone crossing. See the UAL906 flight status page for this flight to view local times or setup timezone preferences in your user account.


Time Position Orientation Groundspeed Altitude Reporting Facility
EST Latitude Longitude Course Direction KTS MPH feet Rate Location/Type
Fri 07:53:00 AM 50.2290 8.0671 306° West  Level Estimated
Fri 07:54:00 AM 50.2965 7.9066 303° West  Level Estimated
Fri 07:55:00 AM 50.3615 7.7434 302° West  Level FlightAware Approximate
Fri 07:56:00 AM 50.4263 7.5798 302° West  Level FlightAware Approximate
Fri 07:57:00 AM 50.4931 7.4179 299° West  Level Estimated
Fri 07:58:00 AM 50.5527 7.2490 299° West  Level FlightAware Approximate
Fri 07:59:00 AM 50.6191 7.0863 302° West  Level Estimated
Fri 08:00:00 AM 50.6810 6.9199 300° West  Level FlightAware Approximate
Fri 08:01:00 AM 50.7467 6.7569 303° West  Level Estimated
Fri 08:02:00 AM 50.8121 6.5934 302° West  Level Estimated
Fri 08:03:00 AM 50.8773 6.4295 306° West  Level Estimated
Fri 08:04:00 AM 50.9422 6.2650 300° West  Level Estimated
Fri 08:04:42 AM 50.6553 7.4819 300° West 443 510 24,000  Level FlightAware ADS-B
Fri 08:05:00 AM 51.0039 6.0972 300° West  Level FlightAware Approximate
Fri 08:05:26 AM 50.7259 7.3976 323° Northwest 450 518 24,900  Level FlightAware ADS-B
Fri 08:06:05 AM 50.7914 7.3186 323° Northwest 457 526 25,700 1,220 Climbing FlightAware ADS-B
Fri 08:06:25 AM 50.8216 7.2694 314° West 461 531 26,100 1,200 Climbing FlightAware ADS-B
Fri 08:06:35 AM 50.8331 7.2443 306° West 463 533 26,300 1,263 Climbing FlightAware ADS-B
Fri 08:06:44 AM 50.8444 7.2139 300° West 465 535 26,500 1,200 Climbing FlightAware ADS-B
Fri 08:06:55 AM 50.8542 7.1796 294° West 467 537 26,700 1,171 Climbing FlightAware ADS-B
Fri 08:07:25 AM 50.8748 7.0987 292° West 470 541 27,300 1,082 Climbing FlightAware ADS-B
Fri 08:07:56 AM 50.9005 6.9963 292° West 473 544 27,800 1,256 Climbing FlightAware ADS-B
Fri 08:08:08 AM 50.9076 6.9680 292° West 476 548 28,200 1,067 Climbing FlightAware ADS-B
Fri 08:08:41 AM 50.9409 6.8426 293° West 481 554 28,600 882 Climbing FlightAware ADS-B
Fri 08:09:16 AM 50.9485 6.8170 295° West 484 557 29,200 1,075 Climbing FlightAware ADS-B
Fri 08:09:48 AM 50.9485 6.8170 295° West 488 562 29,800 955 Climbing FlightAware ADS-B
Fri 08:10:44 AM 51.0557 6.4777 297° West 496 571 30,600 612 Climbing FlightAware ADS-B
Fri 08:11:26 AM 51.0939 6.3598 297° West 504 580 30,800 500 Climbing FlightAware ADS-B
Fri 08:11:56 AM 51.1303 6.2466 297° West 510 587 31,200 400 Climbing FlightAware ADS-B
Fri 08:12:26 AM 51.1340 6.2350 297° West 512 589 31,200  Level FlightAware ADS-B
Fri 08:12:55 AM 51.1390 6.2200 298° West 513 590 31,200 261 Level FlightAware ADS-B
Fri 08:13:35 AM 51.1650 6.1380 297° West 516 594 31,500 366 Climbing FlightAware ADS-B
Fri 08:14:17 AM 51.1710 6.1180 296° West 513 590 31,700 1,244 Climbing FlightAware ADS-B
Fri 08:14:57 AM 51.2330 5.9210 297° West 503 579 33,200 1,222 Climbing FlightAware ADS-B
Fri 08:16:05 AM 51.3060 5.6880 297° West 508 585 33,900 191 Climbing FlightAware ADS-B
Fri 08:18:00 AM 51.4281 5.3673 301° West  Level Estimated
Fri 08:19:00 AM 51.4914 5.1994 301° West  Level Estimated
Fri 08:19:08 AM 51.5775 4.7767 301° West 478 550 34,000  Level FlightAware UK
Fri 08:19:50 AM 51.5755 4.6127 269° West 474 545 34,000 -77 Level FlightAware UK
Fri 08:20:26 AM 51.5820 4.4791 275° West 474 545 33,900 -78 Descending FlightAware UK
Fri 08:21:07 AM 51.5878 4.3213 273° West 478 550 33,900  Level FlightAware UK
Fri 08:22:01 AM 51.5930 4.1176 272° West 480 552 33,900  Level FlightAware UK
Fri 08:22:49 AM 51.5988 3.9371 273° West 480 552 33,900  Level FlightAware UK
Fri 08:23:19 AM 51.6022 3.8241 273° West 478 550 33,900 100 Level FlightAware UK
Fri 08:23:49 AM 51.6050 3.7113 272° West 476 548 34,000 71 Climbing FlightAware UK
Fri 08:24:43 AM 51.6096 3.5085 272° West 478 550 34,000  Level FlightAware UK
Fri 08:25:19 AM 51.6130 3.3735 272° West 480 552 34,000  Level FlightAware UK
Fri 08:25:49 AM 51.6159 3.2613 272° West 478 550 34,000  Level FlightAware UK
Fri 08:26:33 AM 51.6156 3.2662 272° West 503 579 34,000  Level FlightAware ADS-B
Fri 08:26:37 AM 51.6196 3.0829 272° West 476 548 34,000  Level FlightAware UK
Fri 08:27:13 AM 51.6224 2.9486 272° West 474 545 34,000  Level FlightAware UK
Fri 08:27:43 AM 51.6251 2.8359 272° West 476 548 34,000  Level FlightAware UK
Fri 08:28:37 AM 51.6360 2.6361 275° West 476 548 34,000  Level FlightAware UK
Fri 08:28:45 AM 51.6234 2.9060 275° West 503 579 34,000  Level FlightAware ADS-B
Fri 08:29:49 AM 51.6490 2.3688 275° West 476 548 34,000  Level FlightAware UK
Fri 08:30:02 AM 51.6441 2.4664 275° West 502 578 34,000  Level FlightAware ADS-B
Fri 08:30:58 AM 51.6609 2.1178 275° West 501 577 34,000  Level FlightAware ADS-B
Fri 08:31:10 AM 51.6631 2.0703 274° West 502 578 34,000  Level FlightAware ADS-B
Fri 08:31:48 AM 51.6699 1.9286 274° West 503 579 34,000  Level FlightAware ADS-B
Fri 08:32:18 AM 51.6750 1.8193 274° West 503 579 34,000  Level FlightAware ADS-B
Fri 08:32:24 AM 51.6762 1.7936 274° West 503 579 34,000  Level FlightAware ADS-B
Fri 08:32:49 AM 51.6799 1.7130 274° West 504 580 34,000  Level FlightAware ADS-B
Fri 08:33:04 AM 51.6829 1.6465 274° West 504 580 34,000  Level FlightAware ADS-B
Fri 08:33:32 AM 51.6877 1.5420 274° West 506 582 34,000  Level FlightAware ADS-B
Fri 08:33:35 AM 51.6882 1.5304 274° West 506 582 34,000  Level FlightAware ADS-B
Fri 08:34:03 AM 51.6920 1.4391 274° West 507 583 34,000 167 Level FlightAware ADS-B
Fri 08:34:11 AM 51.6938 1.3939 274° West 508 585 34,100 769 Climbing FlightAware ADS-B
Fri 08:34:42 AM 51.6983 1.2767 274° West 508 585 34,500 774 Climbing FlightAware ADS-B
Fri 08:35:13 AM 51.7019 1.1610 273° West 507 583 34,900 714 Climbing FlightAware ADS-B
Fri 08:35:24 AM 51.7028 1.1279 272° West 509 586 35,000 194 Climbing FlightAware ADS-B
Fri 08:35:44 AM 51.7049 1.0441 272° West 512 589 35,000  Level FlightAware ADS-B
Fri 08:36:08 AM 51.7073 0.9513 272° West 512 589 35,000  Level FlightAware ADS-B (LSXS)
Fri 08:36:17 AM 51.7081 0.9198 272° West 512 589 35,000  Level FlightAware ADS-B
Fri 08:36:40 AM 51.7101 0.8309 272° West 511 588 35,000  Level FlightAware ADS-B
Fri 08:36:47 AM 51.7107 0.8039 272° West 511 588 35,000  Level FlightAware ADS-B
Fri 08:37:11 AM 51.7126 0.7156 272° West 510 587 35,000  Level FlightAware ADS-B
Fri 08:37:18 AM 51.7132 0.6875 272° West 510 587 35,000  Level FlightAware ADS-B
Fri 08:37:47 AM 51.7150 0.5764 272° West 510 587 35,000  Level FlightAware ADS-B
Fri 08:37:49 AM 51.7151 0.5711 272° West 510 587 35,000  Level FlightAware ADS-B
Fri 08:38:09 AM 51.7162 0.5007 271° West 510 587 35,000  Level FlightAware ADS-B
Fri 08:38:19 AM 51.7170 0.4559 272° West 510 587 35,000  Level FlightAware ADS-B
Fri 08:38:27 AM 51.7174 0.4287 272° West 510 587 35,000  Level FlightAware ADS-B (KANK)
Fri 08:38:42 AM 51.7185 0.3672 272° West 510 587 35,000  Level FlightAware ADS-B (EGHI / SOU)
Fri 08:38:50 AM 51.7189 0.3392 271° West 510 587 35,000  Level FlightAware ADS-B
Fri 08:38:53 AM 51.7192 0.3259 272° West 510 587 35,000  Level FlightAware ADS-B (LSXS)
Fri 08:39:20 AM 51.7210 0.2227 272° West 511 588 35,000  Level FlightAware ADS-B
Fri 08:39:25 AM 51.7213 0.2087 272° West 511 588 35,000  Level FlightAware ADS-B
Fri 08:39:51 AM 51.7234 0.1050 272° West 511 588 35,000  Level FlightAware ADS-B
Fri 08:39:55 AM 51.7236 0.0903 271° West 511 588 35,000  Level FlightAware ADS-B
Fri 08:40:23 AM 51.7255 -0.0134 272° West 510 587 35,000  Level FlightAware ADS-B
Fri 08:40:25 AM 51.7257 -0.0239 272° West 510 587 35,000  Level FlightAware ADS-B
Fri 08:40:33 AM 51.7262 -0.0539 272° West 510 587 35,000  Level FlightAware ADS-B (LSXS)
Fri 08:40:50 AM 51.7270 -0.1074 271° West 511 588 35,000  Level FlightAware ADS-B
Fri 08:40:53 AM 51.7272 -0.1283 271° West 511 588 35,000  Level FlightAware ADS-B
Fri 08:40:54 AM 51.7274 -0.1336 273° West 511 588 35,000  Level FlightAware ADS-B (LSXS)
Fri 08:41:23 AM 51.7287 -0.2444 271° West 511 588 35,000  Level FlightAware ADS-B
Fri 08:41:24 AM 51.7287 -0.2426 90° East 511 588 35,000  Level FlightAware ADS-B
Fri 08:41:27 AM 51.7289 -0.2570 271° West 511 588 35,000  Level FlightAware ADS-B (KANK)
Fri 08:41:37 AM 51.7293 -0.2950 271° West 511 588 35,000  Level FlightAware ADS-B
Fri 08:41:54 AM 51.7300 -0.3623 271° West 511 588 35,000  Level FlightAware ADS-B
Fri 08:42:16 AM 51.7306 -0.4144 271° West 511 588 35,000  Level FlightAware ADS-B
Fri 08:42:25 AM 51.7312 -0.4786 271° West 512 589 35,000  Level FlightAware ADS-B
Fri 08:42:47 AM 51.7317 -0.5609 271° West 513 590 35,000  Level FlightAware ADS-B
Fri 08:42:56 AM 51.7319 -0.5956 270° West 513 590 35,000  Level FlightAware ADS-B
Fri 08:43:17 AM 51.7323 -0.6741 271° West 513 590 35,000  Level FlightAware ADS-B
Fri 08:43:26 AM 51.7325 -0.7114 270° West 513 590 35,000  Level FlightAware ADS-B
Fri 08:43:55 AM 51.7328 -0.8210 270° West 514 592 35,000  Level FlightAware ADS-B
Fri 08:43:58 AM 51.7329 -0.8336 270° West 514 592 35,000  Level FlightAware ADS-B
Fri 08:44:25 AM 51.7330 -0.9379 270° West 514 592 35,000  Level FlightAware ADS-B
Fri 08:44:30 AM 51.7330 -0.9563 270° West 514 592 35,000  Level FlightAware ADS-B
Fri 08:44:55 AM 51.7330 -1.0444 270° West 514 592 35,000  Level FlightAware ADS-B
Fri 08:45:01 AM 51.7331 -1.0724 270° West 514 592 35,000  Level FlightAware ADS-B
Fri 08:45:26 AM 51.7329 -1.1678 270° West 514 592 35,000  Level FlightAware ADS-B
Fri 08:45:31 AM 51.7328 -1.1877 270° West 514 592 35,000  Level FlightAware ADS-B
Fri 08:45:58 AM 51.7326 -1.2878 270° West 514 592 35,000  Level FlightAware ADS-B
Fri 08:46:02 AM 51.7325 -1.3068 269° West 514 592 35,000  Level FlightAware ADS-B
Fri 08:46:29 AM 51.7320 -1.4043 270° West 514 592 35,000  Level FlightAware ADS-B
Fri 08:46:35 AM 51.7317 -1.4330 269° West 514 592 35,000  Level FlightAware ADS-B
Fri 08:47:00 AM 51.7311 -1.5270 269° West 514 592 35,000  Level FlightAware ADS-B (EGHI / SOU)
Fri 08:47:06 AM 51.7309 -1.5491 269° West 514 592 35,000  Level FlightAware ADS-B
Fri 08:47:10 AM 51.7308 -1.5668 269° West 514 592 35,000  Level FlightAware ADS-B
Fri 08:47:23 AM 51.7305 -1.6142 269° West 514 592 35,000  Level FlightAware ADS-B (KANK)
Fri 08:47:36 AM 51.7303 -1.6658 270° West 515 593 35,000  Level FlightAware ADS-B
Fri 08:47:53 AM 51.7301 -1.7309 270° West 515 593 35,000  Level FlightAware ADS-B
Fri 08:48:07 AM 51.7299 -1.7842 270° West 516 594 35,000  Level FlightAware ADS-B
Fri 08:48:26 AM 51.7296 -1.8567 270° West 516 594 35,000  Level FlightAware ADS-B
Fri 08:48:39 AM 51.7294 -1.9080 270° West 516 594 35,000  Level FlightAware ADS-B
Fri 08:48:57 AM 51.7291 -1.9671 270° West 516 594 35,000  Level FlightAware ADS-B
Fri 08:49:15 AM 51.7289 -2.0449 270° West 515 593 35,000  Level FlightAware ADS-B
Fri 08:49:32 AM 51.7289 -2.1069 270° West 514 592 35,000  Level FlightAware ADS-B (EGDM)
Fri 08:49:46 AM 51.7290 -2.1631 270° West 514 592 35,000  Level FlightAware ADS-B
Fri 08:50:03 AM 51.7292 -2.2284 270° West 514 592 35,000  Level FlightAware ADS-B (EGHH / BOH)
Fri 08:50:16 AM 51.7293 -2.2781 270° West 514 592 35,000  Level FlightAware ADS-B
Fri 08:50:33 AM 51.7295 -2.3426 270° West 514 592 35,000  Level FlightAware ADS-B
Fri 08:50:48 AM 51.7296 -2.4022 270° West 514 592 35,000  Level FlightAware ADS-B
Fri 08:51:07 AM 51.7295 -2.4664 270° West 515 593 35,000  Level FlightAware ADS-B
Fri 08:51:16 AM 51.7292 -2.5082 269° West 515 593 35,000  Level FlightAware ADS-B
Fri 08:51:19 AM 51.7291 -2.5201 269° West 515 593 35,000  Level FlightAware ADS-B
Fri 08:51:23 AM 51.7289 -2.5319 269° West 515 593 35,000  Level FlightAware ADS-B (KANK)
Fri 08:51:42 AM 51.7284 -2.6081 269° West 514 592 35,000  Level FlightAware ADS-B (EGHH / BOH)
Fri 08:51:50 AM 51.7282 -2.6371 270° West 514 592 35,000  Level FlightAware ADS-B
Fri 08:52:13 AM 51.7278 -2.7225 270° West 513 590 35,000  Level FlightAware ADS-B (EGHH / BOH)
Fri 08:52:21 AM 51.7277 -2.7572 270° West 512 589 35,000  Level FlightAware ADS-B
Fri 08:52:34 AM 51.7277 -2.8013 270° West 511 588 35,000  Level FlightAware ADS-B (EGDX / DGX)
Fri 08:52:45 AM 51.7278 -2.8180 270° West 509 586 35,000  Level FlightAware ADS-B (EGDX / DGX)
Fri 08:52:56 AM 51.7316 -2.8894 275° West 510 587 35,000  Level FlightAware ADS-B
Fri 08:53:03 AM 51.7338 -2.9126 279° West 500 575 35,000  Level FlightAware ADS-B
Fri 08:53:24 AM 51.7418 -2.9899 279° West 500 575 35,000  Level FlightAware ADS-B (EGCW)
Fri 08:53:54 AM 51.7532 -3.1004 280° West 499 574 35,000  Level FlightAware ADS-B (EGCW)
Fri 08:54:25 AM 51.7646 -3.2130 279° West 499 574 35,000  Level FlightAware ADS-B (EGCW)
Fri 08:54:59 AM 51.7773 -3.3391 279° West 496 571 35,000  Level FlightAware ADS-B
Fri 08:55:20 AM 51.7844 -3.4104 279° West 494 568 35,000  Level FlightAware ADS-B (EGDX / DGX)
Fri 08:55:23 AM 51.7855 -3.4216 279° West 493 567 35,000  Level FlightAware ADS-B (KANK)
Fri 08:55:54 AM 51.7965 -3.5319 279° West 493 567 35,000  Level FlightAware ADS-B
Fri 08:56:27 AM 51.8090 -3.6554 279° West 493 567 35,000  Level FlightAware ADS-B (EGDM)
Fri 08:56:58 AM 51.8200 -3.7625 280° West 493 567 35,000  Level FlightAware ADS-B (EPBY / BZG)
Fri 08:57:28 AM 51.8288 -3.8461 280° West 493 567 35,000  Level FlightAware ADS-B (EPBY / BZG)
Fri 08:58:05 AM 51.8461 -4.0088 280° West 493 567 35,000  Level FlightAware ADS-B
Fri 08:58:37 AM 51.8588 -4.1267 280° West 493 567 35,000  Level FlightAware ADS-B (EGCW)
Fri 08:59:07 AM 51.8670 -4.2031 280° West 492 566 35,000  Level FlightAware ADS-B (EPBY / BZG)
Fri 08:59:43 AM 51.8843 -4.3612 280° West 491 565 35,000  Level FlightAware ADS-B
Fri 09:00:00 AM 51.8916 -4.4264 280° West 490 564 35,000  Level FlightAware ADS-B
Fri 09:00:32 AM 51.9125 -4.5345 287° West 482 555 35,000  Level FlightAware ADS-B (KANK)
Fri 09:00:53 AM 51.9276 -4.6006 290° West 481 554 35,000  Level FlightAware ADS-B (EGDX / DGX)
Fri 09:01:24 AM 51.9484 -4.6922 290° West 480 552 35,000  Level FlightAware ADS-B (EPBY / BZG)
Fri 09:02:01 AM 51.9799 -4.8302 290° West 479 551 35,000 176 Level FlightAware ADS-B
Fri 09:02:32 AM 52.0042 -4.9367 290° West 479 551 35,200 571 Climbing FlightAware ADS-B
Fri 09:03:04 AM 52.0300 -5.0494 290° West 477 549 35,600 615 Climbing FlightAware ADS-B
Fri 09:03:50 AM 52.0640 -5.1966 291° West 478 550 36,000 444 Climbing FlightAware ADS-B (CYOW)
Fri 09:03:58 AM 52.0729 -5.2283 295° West 475 547 36,000  Level FlightAware ADS-B (EGCW)
Fri 09:04:08 AM 52.0799 -5.2497 298° West 475 547 36,000  Level FlightAware ADS-B
Fri 09:04:38 AM 52.1134 -5.3438 300° West 477 549 36,000  Level FlightAware ADS-B
Fri 09:04:48 AM 52.1215 -5.3692 297° West 478 550 36,000  Level FlightAware ADS-B (EGCW)
Fri 09:05:01 AM 52.1360 -5.4184 296° West 479 551 36,000  Level FlightAware ADS-B (CYOW)
Fri 09:05:33 AM 52.1660 -5.5318 293° West 479 551 36,000  Level FlightAware ADS-B
Fri 09:06:08 AM 52.1911 -5.6330 292° West 477 549 36,000  Level FlightAware ADS-B (EPBY / BZG)
Fri 09:06:38 AM 52.2189 -5.7479 292° West 476 548 36,000  Level FlightAware ADS-B (EPBY / BZG)
Fri 09:07:08 AM 52.2421 -5.8437 292° West 475 547 36,000  Level FlightAware ADS-B (EPBY / BZG)
Fri 09:07:39 AM 52.2618 -5.9260 291° West 473 544 36,000  Level FlightAware ADS-B (EPBY / BZG)
Fri 09:08:09 AM 52.2868 -6.0314 291° West 472 543 36,000  Level FlightAware ADS-B (EPBY / BZG)
Fri 09:08:42 AM 52.3168 -6.1583 291° West 469 540 36,000  Level FlightAware ADS-B
Fri 09:09:19 AM 52.3430 -6.2695 291° West 469 540 36,000  Level FlightAware ADS-B (EPBY / BZG)
Fri 09:09:52 AM 52.3705 -6.3866 291° West 467 537 36,000  Level FlightAware ADS-B
Fri 09:10:27 AM 52.3962 -6.4971 291° West 466 536 36,000  Level FlightAware ADS-B
Fri 09:10:57 AM 52.4208 -6.6041 291° West 472 543 36,000  Level FlightAware UK
Fri 09:11:08 AM 52.4282 -6.6354 291° West 465 535 36,000  Level FlightAware ADS-B (EPBY / BZG)
Fri 09:11:39 AM 52.4508 -6.7336 291° West 465 535 36,000  Level FlightAware ADS-B (EPBY / BZG)
Fri 09:12:11 AM 52.4764 -6.8453 291° West 465 535 36,000  Level FlightAware ADS-B
Fri 09:12:31 AM 52.4919 -6.9131 291° West 465 535 36,000  Level FlightAware ADS-B
Fri 09:13:03 AM 52.5145 -7.0127 291° West 465 535 36,000  Level FlightAware ADS-B
Fri 09:13:33 AM 52.5385 -7.1182 291° West 465 535 36,000  Level FlightAware ADS-B
Fri 09:14:10 AM 52.5657 -7.2391 290° West 466 536 36,000  Level FlightAware ADS-B
Fri 09:14:46 AM 52.5916 -7.3546 290° West 466 536 36,000  Level FlightAware ADS-B
Fri 09:15:20 AM 52.6094 -7.4345 290° West 466 536 36,000  Level FlightAware ADS-B (EPBY / BZG)
Fri 09:15:50 AM 52.6400 -7.5733 290° West 468 539 36,000  Level FlightAware UK
Fri 09:15:59 AM 52.6426 -7.5848 290° West 466 536 36,000  Level FlightAware ADS-B (EPBY / BZG)
Fri 09:16:29 AM 52.6661 -7.6912 290° West 467 537 36,000  Level FlightAware ADS-B (EPBY / BZG)
Fri 09:16:59 AM 52.6880 -7.7911 290° West 468 539 36,000  Level FlightAware ADS-B (EPBY / BZG)
Fri 09:17:29 AM 52.7099 -7.8912 290° West 469 540 36,000  Level FlightAware ADS-B (EPBY / BZG)
Fri 09:17:59 AM 52.7325 -7.9956 290° West 469 540 36,000  Level FlightAware ADS-B (EPBY / BZG)
Fri 09:18:29 AM 52.7548 -8.0989 290° West 469 540 36,000  Level FlightAware ADS-B (EPBY / BZG)
Fri 09:19:04 AM 52.7794 -8.2133 290° West 471 542 36,000  Level FlightAware ADS-B
Fri 09:19:39 AM 52.8029 -8.3236 289° West 473 544 36,000  Level FlightAware ADS-B (EPBY / BZG)
Fri 09:20:19 AM 52.8350 -8.4750 289° West 474 545 36,000  Level FlightAware ADS-B
Fri 09:20:53 AM 52.8598 -8.5925 289° West 475 547 36,000  Level FlightAware ADS-B
Fri 09:21:26 AM 52.8834 -8.7063 289° West 476 548 36,000  Level FlightAware UK
Fri 09:21:38 AM 52.8818 -8.6974 289° West 476 548 36,000  Level FlightAware ADS-B
Fri 09:22:30 AM 52.9248 -8.9044 289° West 478 550 36,000  Level FlightAware ADS-B (EPBY / BZG)
Fri 09:23:00 AM 52.9458 -9.0061 289° West 479 551 36,000  Level FlightAware ADS-B (EPBY / BZG)
Fri 09:23:30 AM 52.9703 -9.1257 289° West 479 551 36,000  Level FlightAware ADS-B (EPBY / BZG)
Fri 09:24:10 AM 52.9964 -9.2533 289° West 480 552 36,000  Level FlightAware ADS-B (EPBY / BZG)
Fri 09:25:40 AM 53.0630 -9.5838 289° West 482 555 36,000  Level FlightAware ADS-B
Fri 09:26:30 AM 53.0988 -9.7635 288° West 483 556 36,000  Level FlightAware ADS-B
Fri 09:29:00 AM 53.2073 -10.2393 291° West  Level Estimated
Fri 09:30:00 AM 53.2501 -10.4303 291° West  Level Estimated
Fri 09:31:00 AM 53.2927 -10.6216 290° West  Level Estimated
Fri 09:32:00 AM 53.3350 -10.8134 290° West  Level Estimated
Fri 09:33:00 AM 53.3769 -11.0055 290° West  Level Estimated
Fri 09:34:00 AM 53.4186 -11.1980 290° West  Level Estimated
Fri 09:35:00 AM 53.4599 -11.3909 290° West  Level Estimated
Fri 09:36:00 AM 53.5009 -11.5841 290° West  Level Estimated
Fri 09:37:00 AM 53.5416 -11.7777 290° West  Level Estimated
Fri 09:38:00 AM 53.5820 -11.9717 289° West  Level Estimated
Fri 09:39:00 AM 53.6221 -12.1661 289° West  Level Estimated
Fri 09:40:00 AM 53.6619 -12.3608 289° West  Level Estimated
Fri 09:41:00 AM 53.7013 -12.5559 289° West  Level Estimated
Fri 09:42:00 AM 53.7405 -12.7514 289° West  Level Estimated
Fri 09:43:00 AM 53.7793 -12.9472 289° West  Level Estimated
Fri 09:44:00 AM 53.8177 -13.1434 288° West  Level Estimated
Fri 09:45:00 AM 53.8559 -13.3399 288° West  Level Estimated
Fri 09:46:00 AM 53.8938 -13.5368 288° West  Level Estimated
Fri 09:47:00 AM 53.9313 -13.7340 288° West  Level Estimated
Fri 09:48:00 AM 53.9685 -13.9317 288° West  Level Estimated
Fri 09:49:00 AM 54.0054 -14.1296 288° West  Level Estimated
Fri 09:50:00 AM 54.0419 -14.3279 288° West  Level Estimated
Fri 09:51:00 AM 54.0782 -14.5266 287° West  Level Estimated
Fri 09:52:00 AM 54.1141 -14.7256 287° West  Level Estimated
Fri 09:53:00 AM 54.1496 -14.9249 287° West  Level Estimated
Fri 09:54:00 AM 54.1849 -15.1246 287° West  Level Estimated
Fri 09:55:00 AM 54.2198 -15.3246 287° West  Level Estimated
Fri 09:56:00 AM 54.2544 -15.5250 287° West  Level Estimated
Fri 09:57:00 AM 54.2886 -15.7257 286° West  Level Estimated
Fri 09:58:00 AM 54.3225 -15.9267 286° West  Level Estimated
Fri 09:59:00 AM 54.3561 -16.1281 286° West  Level Estimated
Fri 10:00:00 AM 54.3893 -16.3298 286° West  Level Estimated
Fri 10:01:00 AM 54.4222 -16.5318 286° West  Level Estimated
Fri 10:02:00 AM 54.4548 -16.7341 286° West  Level Estimated
Fri 10:03:00 AM 54.4870 -16.9368 285° West  Level Estimated
Fri 10:04:00 AM 54.5189 -17.1397 285° West  Level Estimated
Fri 10:05:00 AM 54.5505 -17.3430 285° West  Level Estimated
Fri 10:06:00 AM 54.5817 -17.5466 285° West  Level Estimated
Fri 10:07:00 AM 54.6126 -17.7505 285° West  Level Estimated
Fri 10:08:00 AM 54.6431 -17.9548 285° West  Level Estimated
Fri 10:09:00 AM 54.6733 -18.1593 284° West  Level Estimated
Fri 10:10:00 AM 54.7031 -18.3641 284° West  Level Estimated
Fri 10:11:00 AM 54.7326 -18.5692 284° West  Level Estimated
Fri 10:12:00 AM 54.7617 -18.7747 284° West  Level Estimated
Fri 10:13:00 AM 54.7905 -18.9804 284° West  Level Estimated
Fri 10:14:00 AM 54.8190 -19.1864 284° West  Level Estimated
Fri 10:14:32 AM 54.0000 -20.0000 274° West 480 552 36,000  Level ETMS Enhanced Traffic Management System
Fri 10:15:00 AM 54.8471 -19.3927 283° West  Level Estimated
Fri 10:16:00 AM 54.8748 -19.5993 283° West  Level Estimated
Fri 10:17:00 AM 54.9022 -19.8061 283° West  Level Estimated
Fri 10:18:00 AM 54.9292 -20.0133 283° West  Level Estimated
Fri 10:19:00 AM 54.9559 -20.2207 283° West  Level Estimated
Fri 10:20:00 AM 54.0555 -21.5879 273° West 480 552 36,000  Level FlightAware Transoceanic
Fri 10:21:00 AM 54.0617 -21.8150 273° West 480 552 36,000  Level FlightAware Transoceanic
Fri 10:22:00 AM 54.0675 -22.0422 272° West 480 552 36,000  Level FlightAware Transoceanic
Fri 10:23:00 AM 54.0729 -22.2695 272° West 480 552 36,000  Level FlightAware Transoceanic
Fri 10:24:00 AM 54.0778 -22.4969 272° West 480 552 36,000  Level FlightAware Transoceanic
Fri 10:25:00 AM 54.0823 -22.7243 272° West 480 552 36,000  Level FlightAware Transoceanic
Fri 10:26:00 AM 54.0864 -22.9517 272° West 480 552 36,000  Level FlightAware Transoceanic
Fri 10:27:00 AM 54.0901 -23.1792 271° West 480 552 36,000  Level FlightAware Transoceanic
Fri 10:28:00 AM 54.0933 -23.4067 271° West 480 552 36,000  Level FlightAware Transoceanic
Fri 10:29:00 AM 54.0961 -23.6343 271° West 480 552 36,000  Level FlightAware Transoceanic
Fri 10:30:00 AM 54.0984 -23.8618 271° West 480 552 36,000  Level FlightAware Transoceanic
Fri 10:31:00 AM 54.1004 -24.0894 271° West 480 552 36,000  Level FlightAware Transoceanic
Fri 10:32:00 AM 54.1019 -24.3171 271° West 480 552 36,000  Level FlightAware Transoceanic
Fri 10:33:00 AM 54.1030 -24.5447 270° West 480 552 36,000  Level FlightAware Transoceanic
Fri 10:34:00 AM 54.1036 -24.7724 270° West 480 552 36,000  Level FlightAware Transoceanic
Fri 10:35:00 AM 54.1038 -25.0000 270° West 480 552 36,000  Level FlightAware Transoceanic
Fri 10:36:00 AM 54.1036 -25.2276 270° West 480 552 36,000  Level FlightAware Transoceanic
Fri 10:37:00 AM 54.1030 -25.4553 270° West 480 552 36,000  Level FlightAware Transoceanic
Fri 10:38:00 AM 54.1019 -25.6829 269° West 480 552 36,000  Level FlightAware Transoceanic
Fri 10:39:00 AM 54.1004 -25.9106 269° West 480 552 36,000  Level FlightAware Transoceanic
Fri 10:40:00 AM 54.0984 -26.1382 269° West 480 552 36,000  Level FlightAware Transoceanic
Fri 10:41:00 AM 54.0961 -26.3657 269° West 480 552 36,000  Level FlightAware Transoceanic
Fri 10:42:00 AM 54.0933 -26.5933 269° West 480 552 36,000  Level FlightAware Transoceanic
Fri 10:43:00 AM 54.0901 -26.8208 269° West 480 552 36,000  Level FlightAware Transoceanic
Fri 10:44:00 AM 54.0864 -27.0483 268° West 480 552 36,000  Level FlightAware Transoceanic
Fri 10:45:00 AM 54.0823 -27.2757 268° West 480 552 36,000  Level FlightAware Transoceanic
Fri 10:46:00 AM 54.0778 -27.5031 268° West 480 552 36,000  Level FlightAware Transoceanic
Fri 10:47:00 AM 54.0729 -27.7305 268° West 480 552 36,000  Level FlightAware Transoceanic
Fri 10:48:00 AM 54.0675 -27.9578 268° West 480 552 36,000  Level FlightAware Transoceanic
Fri 10:49:00 AM 54.0617 -28.1850 267° West 480 552 36,000  Level FlightAware Transoceanic
Fri 10:50:00 AM 54.0555 -28.4121 267° West 480 552 36,000  Level FlightAware Transoceanic
Fri 10:51:00 AM 54.0489 -28.6392 267° West 480 552 36,000  Level FlightAware Transoceanic
Fri 10:52:00 AM 54.0418 -28.8662 267° West 480 552 36,000  Level FlightAware Transoceanic
Fri 10:53:00 AM 54.0343 -29.0932 267° West 480 552 36,000  Level FlightAware Transoceanic
Fri 10:54:00 AM 54.0263 -29.3200 267° West 480 552 36,000  Level FlightAware Transoceanic
Fri 10:55:00 AM 54.0180 -29.5468 266° West 480 552 36,000  Level FlightAware Transoceanic
Fri 10:56:00 AM 54.0092 -29.7734 266° West 480 552 36,000 11 Level FlightAware Transoceanic
Fri 10:57:00 AM 54.0235 -29.9798 277° West  Level Estimated
Fri 10:58:00 AM 54.0375 -30.1863 277° West  Level Estimated
Fri 10:59:00 AM 54.0511 -30.3930 276° West  Level Estimated
Fri 11:00:00 AM 54.0644 -30.6001 276° West  Level Estimated
Fri 11:01:00 AM 54.0773 -30.8074 276° West  Level Estimated
Fri 11:02:00 AM 54.0899 -31.0149 276° West  Level Estimated
Fri 11:03:00 AM 54.1021 -31.2225 276° West  Level Estimated
Fri 11:04:00 AM 54.1140 -31.4301 276° West  Level Estimated
Fri 11:05:00 AM 54.1255 -31.6379 275° West  Level Estimated
Fri 11:06:00 AM 54.1366 -31.8458 275° West  Level Estimated
Fri 11:07:00 AM 54.1474 -32.0539 275° West  Level Estimated
Fri 11:08:00 AM 54.1578 -32.2620 275° West  Level Estimated
Fri 11:09:00 AM 54.1679 -32.4702 275° West  Level Estimated
Fri 11:10:00 AM 54.1776 -32.6786 275° West  Level Estimated
Fri 11:11:00 AM 54.1870 -32.8870 274° West  Level Estimated
Fri 11:12:00 AM 54.1960 -33.0955 274° West  Level Estimated
Fri 11:13:00 AM 54.2046 -33.3041 274° West  Level Estimated
Fri 11:14:00 AM 54.2129 -33.5128 274° West  Level Estimated
Fri 11:15:00 AM 54.2208 -33.7216 274° West  Level Estimated
Fri 11:16:00 AM 54.2283 -33.9305 274° West  Level Estimated
Fri 11:17:00 AM 54.2355 -34.1394 273° West  Level Estimated
Fri 11:18:00 AM 54.2423 -34.3484 273° West  Level Estimated
Fri 11:19:00 AM 54.2488 -34.5574 273° West  Level Estimated
Fri 11:20:00 AM 54.2549 -34.7666 273° West  Level Estimated
Fri 11:21:00 AM 54.2606 -34.9758 273° West  Level Estimated
Fri 11:22:00 AM 54.2660 -35.1850 273° West  Level Estimated
Fri 11:23:00 AM 54.2710 -35.3943 272° West  Level Estimated
Fri 11:24:00 AM 54.2757 -35.6037 272° West  Level Estimated
Fri 11:25:00 AM 54.2800 -35.8131 272° West  Level Estimated
Fri 11:26:00 AM 54.2839 -36.0225 272° West  Level Estimated
Fri 11:27:00 AM 54.2875 -36.2320 272° West  Level Estimated
Fri 11:28:00 AM 54.2907 -36.4415 272° West  Level Estimated
Fri 11:29:00 AM 54.2935 -36.6510 271° West  Level Estimated
Fri 11:30:00 AM 54.2960 -36.8606 271° West  Level Estimated
Fri 11:31:00 AM 54.2981 -37.0702 271° West  Level Estimated
Fri 11:32:00 AM 54.2998 -37.2798 271° West  Level Estimated
Fri 11:33:00 AM 54.3012 -37.4894 271° West  Level Estimated
Fri 11:34:00 AM 54.3022 -37.6991 271° West  Level Estimated
Fri 11:35:00 AM 54.3029 -37.9087 270° West  Level Estimated
Fri 11:36:00 AM 54.3032 -38.1184 270° West  Level Estimated
Fri 11:37:00 AM 54.3031 -38.3280 270° West  Level Estimated
Fri 11:38:00 AM 54.3027 -38.5377 270° West  Level Estimated
Fri 11:39:00 AM 54.3019 -38.7473 270° West  Level Estimated
Fri 11:40:00 AM 54.3007 -38.9570 270° West  Level Estimated
Fri 11:41:00 AM 54.2992 -39.1666 269° West  Level Estimated
Fri 11:42:00 AM 54.2973 -39.3762 269° West  Level Estimated
Fri 11:43:00 AM 54.2951 -39.5858 269° West  Level Estimated
Fri 11:44:00 AM 54.2924 -39.7953 269° West  Level Estimated
Fri 11:45:00 AM 54.2895 -40.0048 269° West  Level Estimated
Fri 11:46:00 AM 54.2861 -40.2143 269° West  Level Estimated
Fri 11:47:00 AM 54.2824 -40.4238 268° West  Level Estimated
Fri 11:48:00 AM 54.2784 -40.6332 268° West  Level Estimated
Fri 11:49:00 AM 54.2739 -40.8426 268° West  Level Estimated
Fri 11:50:00 AM 54.2691 -41.0519 268° West  Level Estimated
Fri 11:51:00 AM 54.2640 -41.2612 268° West  Level Estimated
Fri 11:52:00 AM 54.2585 -41.4704 268° West  Level Estimated
Fri 11:53:00 AM 54.2526 -41.6796 267° West  Level Estimated
Fri 11:54:00 AM 54.2463 -41.8887 267° West  Level Estimated
Fri 11:55:00 AM 54.2397 -42.0978 267° West  Level Estimated
Fri 11:56:00 AM 54.2328 -42.3067 267° West  Level Estimated
Fri 11:57:00 AM 54.2255 -42.5156 267° West  Level Estimated
Fri 11:58:00 AM 54.2178 -42.7245 266° West  Level Estimated
Fri 11:59:00 AM 54.2097 -42.9332 266° West  Level Estimated
Fri 12:00:00 PM 54.2013 -43.1419 266° West  Level Estimated
Fri 12:01:00 PM 54.1925 -43.3504 266° West  Level Estimated
Fri 12:02:00 PM 54.1834 -43.5589 266° West  Level Estimated
Fri 12:03:00 PM 54.1739 -43.7673 266° West  Level Estimated
Fri 12:04:00 PM 54.1641 -43.9756 265° West  Level Estimated
Fri 12:05:00 PM 54.1539 -44.1838 265° West  Level Estimated
Fri 12:06:00 PM 54.1433 -44.3919 265° West  Level Estimated
Fri 12:07:00 PM 54.1324 -44.5999 265° West  Level Estimated
Fri 12:08:00 PM 54.1211 -44.8078 265° West  Level Estimated
Fri 12:09:00 PM 54.1095 -45.0155 265° West  Level Estimated
Fri 12:10:00 PM 54.0975 -45.2231 264° West  Level Estimated
Fri 12:11:00 PM 54.0851 -45.4307 264° West  Level Estimated
Fri 12:12:00 PM 54.0724 -45.6381 264° West  Level Estimated
Fri 12:13:00 PM 54.0593 -45.8453 264° West  Level Estimated
Fri 12:14:00 PM 54.0459 -46.0524 264° West  Level Estimated
Fri 12:15:00 PM 54.0321 -46.2594 264° West  Level Estimated
Fri 12:16:00 PM 54.0180 -46.4663 263° West  Level Estimated
Fri 12:17:00 PM 54.0035 -46.6730 263° West  Level Estimated
Fri 12:18:00 PM 53.9886 -46.8796 263° West  Level Estimated
Fri 12:19:00 PM 53.9734 -47.0860 263° West  Level Estimated
Fri 12:20:00 PM 53.9579 -47.2922 263° West  Level Estimated
Fri 12:21:00 PM 53.9420 -47.4983 263° West  Level Estimated
Fri 12:22:00 PM 53.9257 -47.7043 262° West  Level Estimated
Fri 12:23:00 PM 53.9091 -47.9101 262° West  Level Estimated
Fri 12:24:00 PM 53.8921 -48.1157 262° West  Level Estimated
Fri 12:25:00 PM 53.8748 -48.3212 262° West  Level Estimated
Fri 12:26:00 PM 53.8572 -48.5264 262° West  Level Estimated
Fri 12:27:00 PM 53.8392 -48.7312 262° West  Level Estimated
Fri 12:27:51 PM 52.8667 -50.5833 261° West 490 564 37,000  Level Gander Center
Fri 12:28:00 PM 53.8209 -48.9357 261° West  Level Estimated
Fri 12:28:51 PM 52.8000 -50.8000 243° Southwest 500 575 37,000  Level Gander Center
Fri 12:29:00 PM 53.8022 -49.1400 261° West  Level Estimated
Fri 12:29:51 PM 52.7667 -51.0333 257° West 500 575 37,000  Level Gander Center
Fri 12:30:00 PM 53.7832 -49.3442 261° West  Level Estimated
Fri 12:30:51 PM 52.7167 -51.2333 248° West 500 575 37,000  Level Gander Center
Fri 12:31:00 PM 53.7638 -49.5482 261° West  Level Estimated
Fri 12:31:51 PM 52.6833 -51.4667 257° West 500 575 37,000  Level Gander Center
Fri 12:32:00 PM 53.7441 -49.7520 261° West  Level Estimated
Fri 12:32:51 PM 52.6333 -51.6833 249° West 510 587 37,000  Level Gander Center
Fri 12:33:00 PM 53.7240 -49.9556 261° West  Level Estimated
Fri 12:33:51 PM 52.5667 -51.9167 245° Southwest 500 575 37,000  Level Gander Center
Fri 12:34:51 PM 52.5167 -52.1167 248° West 500 575 37,000  Level Gander Center
Fri 12:35:51 PM 52.4500 -52.3167 241° Southwest 500 575 37,000  Level Gander Center
Fri 12:36:51 PM 52.4000 -52.5500 251° West 500 575 37,000 50 Level Gander Center
Fri 12:37:51 PM 52.3500 -52.7500 248° West 510 587 37,100 300 Climbing Gander Center
Fri 12:38:51 PM 52.3167 -52.9833 257° West 490 564 37,600 450 Climbing Gander Center
Fri 12:39:51 PM 52.2833 -53.2000 256° West 490 564 38,000 200 Climbing Gander Center
Fri 12:40:51 PM 52.2667 -53.4333 263° West 510 587 38,000  Level Gander Center
Fri 12:41:51 PM 52.2333 -53.6333 255° West 490 564 38,000  Level Gander Center
Fri 12:42:51 PM 52.2000 -53.8500 256° West 510 587 38,000  Level Gander Center
Fri 12:43:51 PM 52.1500 -54.0833 251° West 500 575 38,000  Level Gander Center
Fri 12:44:51 PM 52.1167 -54.3000 256° West 500 575 38,000  Level Gander Center
Fri 12:45:51 PM 52.1000 -54.5000 262° West 490 564 38,000  Level Gander Center
Fri 12:46:51 PM 52.0667 -54.7167 256° West 490 564 38,000  Level Gander Center
Fri 12:47:51 PM 52.0167 -54.9500 251° West 500 575 38,000  Level Gander Center
Fri 12:48:51 PM 51.9833 -55.1667 256° West 490 564 38,000  Level Gander Center
Fri 12:49:56 PM 51.9500 -55.4000 257° West 490 564 38,000  Level Moncton Center
Fri 12:50:56 PM 51.9167 -55.6000 255° West 490 564 38,000  Level Moncton Center
Fri 12:51:56 PM 51.8833 -55.8167 256° West 480 552 38,000  Level Moncton Center
Fri 12:52:56 PM 51.8500 -56.0500 257° West 490 564 38,000  Level Moncton Center
Fri 12:53:56 PM 51.8167 -56.2333 254° West 480 552 38,000  Level Moncton Center
Fri 12:54:56 PM 51.7667 -56.4333 248° West 480 552 38,000  Level Moncton Center
Fri 12:55:56 PM 51.7333 -56.6333 255° West 480 552 38,000  Level Moncton Center
Fri 12:56:51 PM 51.7000 -56.8333 255° West 470 541 38,000  Level Gander Center
Fri 12:57:56 PM 51.6667 -57.0500 256° West 470 541 38,000  Level Moncton Center
Fri 12:58:56 PM 51.6167 -57.2500 248° West 470 541 38,000  Level Moncton Center
Fri 12:59:56 PM 51.5833 -57.4667 256° West 470 541 38,000  Level Moncton Center
Fri 01:00:51 PM 51.5500 -57.6500 254° West 480 552 38,000  Level Gander Center
Fri 01:01:51 PM 51.5000 -57.8667 250° West 470 541 38,000  Level Gander Center
Fri 01:02:51 PM 51.4667 -58.0667 255° West 470 541 38,000  Level Gander Center
Fri 01:03:56 PM 51.4333 -58.2667 255° West 470 541 38,000  Level Moncton Center
Fri 01:04:56 PM 51.3833 -58.4667 248° West 470 541 38,000  Level Moncton Center
Fri 01:05:56 PM 51.3500 -58.6667 255° West 460 529 38,000  Level Moncton Center
Fri 01:06:56 PM 51.3000 -58.8500 246° West 470 541 38,000  Level Moncton Center
Fri 01:07:56 PM 51.2667 -59.0500 255° West 460 529 38,000  Level Moncton Center
Fri 01:08:56 PM 51.2167 -59.2667 250° West 460 529 38,000  Level Moncton Center
Fri 01:09:56 PM 51.1833 -59.4500 254° West 460 529 38,000  Level Moncton Center
Fri 01:10:56 PM 51.1500 -59.6500 255° West 460 529 38,000  Level Moncton Center
Fri 01:11:56 PM 51.1167 -59.8333 254° West 470 541 38,000  Level Moncton Center
Fri 01:12:56 PM 51.0667 -60.0333 248° West 460 529 38,000  Level Moncton Center
Fri 01:13:56 PM 51.0167 -60.2167 247° West 460 529 38,000  Level Moncton Center
Fri 01:14:56 PM 50.9833 -60.4333 256° West 460 529 38,000  Level Moncton Center
Fri 01:15:56 PM 50.9333 -60.6167 247° West 460 529 38,000  Level Moncton Center
Fri 01:16:56 PM 50.9000 -60.8167 255° West 460 529 38,000  Level Moncton Center
Fri 01:17:56 PM 50.8500 -61.0000 247° West 460 529 38,000  Level Moncton Center
Fri 01:18:56 PM 50.8000 -61.2000 248° West 460 529 38,000  Level Moncton Center
Fri 01:19:56 PM 50.7500 -61.3833 247° West 460 529 38,000  Level Moncton Center
Fri 01:20:56 PM 50.7167 -61.5667 254° West 460 529 38,000  Level Moncton Center
Fri 01:21:56 PM 50.6667 -61.7500 247° West 450 518 38,000  Level Moncton Center
Fri 01:22:56 PM 50.6167 -61.9500 249° West 460 529 38,000  Level Moncton Center
Fri 01:23:56 PM 50.5833 -62.1333 254° West 450 518 38,000  Level Moncton Center
Fri 01:24:56 PM 50.5500 -62.3167 254° West 460 529 38,000  Level Moncton Center
Fri 01:25:56 PM 50.5000 -62.5000 247° West 450 518 38,000  Level Moncton Center
Fri 01:26:56 PM 50.4500 -62.6833 247° West 450 518 38,000  Level Moncton Center
Fri 01:27:56 PM 50.4000 -62.8667 247° West 450 518 38,000  Level Moncton Center
Fri 01:28:35 PM 50.3667 -62.9667 242° Southwest 450 518 38,000  Level Montreal Center
Fri 01:29:35 PM 50.3333 -63.1333 253° West 450 518 38,000  Level Montreal Center
Fri 01:30:35 PM 50.3000 -63.3000 253° West 450 518 38,000  Level Montreal Center
Fri 01:31:35 PM 50.2500 -63.5000 249° West 450 518 38,000  Level Montreal Center
Fri 01:32:35 PM 50.2000 -63.6833 247° West 450 518 38,000  Level Montreal Center
Fri 01:33:35 PM 50.1500 -63.8833 249° West 450 518 38,000  Level Montreal Center
Fri 01:34:35 PM 50.1000 -64.0500 245° Southwest 450 518 38,000  Level Montreal Center
Fri 01:35:35 PM 50.0500 -64.2167 245° Southwest 450 518 38,000  Level Montreal Center
Fri 01:36:35 PM 50.0000 -64.4167 249° West 450 518 38,000  Level Montreal Center
Fri 01:37:35 PM 49.9500 -64.5833 245° Southwest 450 518 38,000  Level Montreal Center
Fri 01:38:35 PM 49.9000 -64.7833 249° West 450 518 38,000  Level Montreal Center
Fri 01:39:35 PM 49.8500 -64.9500 245° Southwest 450 518 38,000  Level Montreal Center
Fri 01:40:35 PM 49.8167 -65.1167 253° West 440 506 38,000  Level Montreal Center
Fri 01:41:35 PM 49.7667 -65.3167 249° West 440 506 38,000  Level Montreal Center
Fri 01:42:35 PM 49.7167 -65.4833 245° Southwest 450 518 38,000  Level Montreal Center
Fri 01:43:35 PM 49.6667 -65.6833 249° West 450 518 38,000  Level Montreal Center
Fri 01:44:35 PM 49.6167 -65.8500 245° Southwest 450 518 38,000  Level Montreal Center
Fri 01:45:35 PM 49.5667 -66.0167 245° Southwest 440 506 38,000  Level Montreal Center
Fri 01:46:35 PM 49.5167 -66.1833 245° Southwest 440 506 38,000  Level Montreal Center
Fri 01:47:35 PM 49.4833 -66.3500 253° West 440 506 38,000  Level Montreal Center
Fri 01:48:35 PM 49.4333 -66.5333 247° West 440 506 38,000  Level Montreal Center
Fri 01:49:35 PM 49.3667 -66.7000 238° Southwest 440 506 38,000  Level Montreal Center
Fri 01:50:35 PM 49.3333 -66.8667 253° West 430 495 38,000  Level Montreal Center
Fri 01:51:35 PM 49.2833 -67.0333 245° Southwest 430 495 38,000  Level Montreal Center
Fri 01:52:35 PM 49.2333 -67.2000 245° Southwest 430 495 38,000  Level Montreal Center
Fri 01:53:35 PM 49.1667 -67.3667 239° Southwest 430 495 38,000  Level Montreal Center
Fri 01:54:35 PM 49.1333 -67.5333 253° West 430 495 38,000  Level Montreal Center
Fri 01:55:35 PM 49.0833 -67.6833 243° Southwest 430 495 38,000  Level Montreal Center
Fri 01:56:35 PM 49.0333 -67.8833 249° West 430 495 38,000  Level Montreal Center
Fri 01:57:35 PM 48.9667 -68.0500 239° Southwest 430 495 38,000  Level Montreal Center
Fri 01:58:35 PM 48.9333 -68.2000 251° West 430 495 38,000  Level Montreal Center
Fri 01:59:35 PM 48.8667 -68.3667 239° Southwest 430 495 38,000  Level Montreal Center
Fri 02:00:35 PM 48.8167 -68.5500 248° West 440 506 38,000  Level Montreal Center
Fri 02:01:35 PM 48.7667 -68.7000 243° Southwest 440 506 38,000  Level Montreal Center
Fri 02:02:35 PM 48.7167 -68.8833 248° West 440 506 38,000  Level Montreal Center
Fri 02:03:35 PM 48.6667 -69.0333 243° Southwest 440 506 38,000  Level Montreal Center
Fri 02:09:32 PM 48.4358 -70.0782 243° Southwest 436 502 38,000  Level FlightAware ADS-B
Fri 02:10:03 PM 48.4171 -70.1609 251° West 436 502 38,000  Level FlightAware ADS-B
Fri 02:11:07 PM 48.3698 -70.3690 251° West 438 504 38,000  Level FlightAware ADS-B
Fri 02:11:47 PM 48.3441 -70.4824 251° West 439 505 38,000  Level FlightAware ADS-B
Fri 02:12:20 PM 48.3239 -70.5718 251° West 439 505 38,000  Level FlightAware ADS-B
Fri 02:12:54 PM 48.3001 -70.6760 251° West 438 504 38,000  Level FlightAware ADS-B
Fri 02:13:34 PM 48.2743 -70.7887 251° West 436 502 38,000  Level FlightAware ADS-B
Fri 02:14:07 PM 48.2523 -70.8836 251° West 434 499 38,000  Level FlightAware ADS-B
Fri 02:14:37 PM 48.2327 -70.9682 251° West 433 498 38,000  Level FlightAware ADS-B
Fri 02:15:11 PM 48.2110 -71.0617 251° West 433 498 38,000  Level FlightAware ADS-B
Fri 02:15:41 PM 48.1929 -71.1393 251° West 433 498 38,000  Level FlightAware ADS-B
Fri 02:16:12 PM 48.1714 -71.2312 251° West 432 497 38,000  Level FlightAware ADS-B
Fri 02:16:42 PM 48.1519 -71.3142 251° West 431 496 38,000  Level FlightAware ADS-B
Fri 02:17:13 PM 48.1308 -71.4032 251° West 432 497 38,000  Level FlightAware ADS-B
Fri 02:17:45 PM 48.1088 -71.4966 251° West 433 498 38,000  Level FlightAware ADS-B
Fri 02:18:26 PM 48.0815 -71.6108 250° West 432 497 38,000  Level FlightAware ADS-B
Fri 02:19:00 PM 48.0585 -71.7070 250° West 432 497 38,000  Level FlightAware ADS-B
Fri 02:19:27 PM 48.0410 -71.7770 250° West 432 497 38,000  Level FlightAware ADS-B
Fri 02:19:33 PM 48.0362 -71.7992 252° West 431 496 38,000  Level FlightAware ADS-B
Fri 02:20:01 PM 48.0170 -71.8770 250° West 431 496 38,000  Level FlightAware ADS-B
Fri 02:20:14 PM 48.0087 -71.9137 251° West 430 495 38,000  Level FlightAware ADS-B
Fri 02:20:46 PM 47.9870 -72.0030 250° West 430 495 38,000  Level FlightAware ADS-B
Fri 02:21:22 PM 47.9620 -72.1040 250° West 431 496 38,000  Level FlightAware ADS-B
Fri 02:21:52 PM 47.9420 -72.1860 250° West 430 495 38,000  Level FlightAware ADS-B
Fri 02:22:18 PM 47.9525 -72.1442 69° East 429 494 38,000  Level FlightAware ADS-B
Fri 02:22:28 PM 47.9180 -72.2870 250° West 429 494 38,000  Level FlightAware ADS-B
Fri 02:23:04 PM 47.8930 -72.3860 249° West 428 493 38,000  Level FlightAware ADS-B
Fri 02:23:14 PM 47.8896 -72.3998 250° West 426 490 38,000  Level FlightAware ADS-B
Fri 02:23:41 PM 47.8690 -72.4840 250° West 426 490 38,000  Level FlightAware ADS-B
Fri 02:24:16 PM 47.8440 -72.5820 249° West 425 489 38,000  Level FlightAware ADS-B
Fri 02:24:59 PM 47.8150 -72.6980 250° West 424 488 38,000  Level FlightAware ADS-B
Fri 02:25:28 PM 47.7950 -72.7780 250° West 421 484 38,000  Level FlightAware ADS-B
Fri 02:26:04 PM 47.7700 -72.8760 249° West 419 482 38,000  Level FlightAware ADS-B
Fri 02:26:34 PM 47.7500 -72.9560 250° West 419 482 38,000  Level FlightAware ADS-B
Fri 02:27:04 PM 47.7300 -73.0360 250° West 417 480 38,000  Level FlightAware ADS-B
Fri 02:27:41 PM 47.7050 -73.1330 249° West 415 478 38,000  Level FlightAware ADS-B
Fri 02:28:11 PM 47.6850 -73.2110 249° West 415 478 38,000  Level FlightAware ADS-B
Fri 02:28:44 PM 47.6620 -73.3000 249° West 414 476 38,000  Level FlightAware ADS-B
Fri 02:29:22 PM 47.6370 -73.3990 249° West 412 474 38,000  Level FlightAware ADS-B
Fri 02:29:53 PM 47.6160 -73.4800 249° West 411 473 38,000  Level FlightAware ADS-B
Fri 02:30:40 PM 47.5830 -73.6050 249° West 410 472 38,000  Level FlightAware ADS-B
Fri 02:31:15 PM 47.5590 -73.6950 248° West 410 472 38,000  Level FlightAware ADS-B
Fri 02:31:52 PM 47.5340 -73.7920 249° West 409 471 38,000  Level FlightAware ADS-B
Fri 02:33:10 PM 47.4810 -73.9920 249° West 409 471 38,000  Level FlightAware ADS-B
Fri 02:33:51 PM 47.4590 -74.0760 249° West 408 470 38,000  Level FlightAware ADS-B
Fri 02:34:33 PM 47.4260 -74.2000 249° West 407 468 38,000  Level FlightAware ADS-B
Fri 02:35:04 PM 47.4070 -74.2700 248° West 405 466 38,000  Level FlightAware ADS-B
Fri 02:35:34 PM 47.3970 -74.3070 248° West 404 465 38,000  Level FlightAware ADS-B
Fri 02:36:11 PM 47.3800 -74.3680 248° West 403 464 38,000  Level FlightAware ADS-B
Fri 02:36:46 PM 47.3620 -74.4360 249° West 401 461 38,000  Level FlightAware ADS-B
Fri 02:37:16 PM 47.3480 -74.4870 248° West 401 461 38,000  Level FlightAware ADS-B
Fri 02:37:52 PM 47.3290 -74.5590 249° West 400 460 38,000  Level FlightAware ADS-B
Fri 02:38:22 PM 47.3140 -74.6140 248° West 398 458 38,000  Level FlightAware ADS-B
Fri 02:39:04 PM 47.2440 -74.8690 248° West 393 452 38,000  Level FlightAware ADS-B
Fri 02:39:40 PM 47.2270 -74.9290 247° West 392 451 38,000  Level FlightAware ADS-B
Fri 02:40:16 PM 47.2020 -75.0220 248° West 391 450 38,000  Level FlightAware ADS-B
Fri 02:40:46 PM 47.1830 -75.0890 247° West 390 449 38,000  Level FlightAware ADS-B
Fri 02:41:22 PM 47.1650 -75.1530 248° West 390 449 38,000  Level FlightAware ADS-B
Fri 02:41:58 PM 47.1240 -75.3010 248° West 389 448 38,000  Level FlightAware ADS-B
Fri 02:42:27 PM 47.1110 -75.3480 248° West 388 447 38,000  Level FlightAware ADS-B
Fri 02:43:11 PM 47.0710 -75.4870 247° West 388 447 38,000  Level FlightAware ADS-B
Fri 02:43:46 PM 47.0540 -75.5500 248° West 389 448 38,000  Level FlightAware ADS-B
Fri 02:44:16 PM 47.0300 -75.6320 247° West 390 449 38,000  Level FlightAware ADS-B
Fri 02:44:51 PM 47.0050 -75.7200 247° West 391 450 38,000  Level FlightAware ADS-B
Fri 02:45:22 PM 46.9880 -75.7790 247° West 391 450 38,000  Level FlightAware ADS-B
Fri 02:45:52 PM 46.9780 -75.8160 248° West 391 450 38,000  Level FlightAware ADS-B
Fri 02:46:27 PM 46.9580 -75.8830 246° West 391 450 38,000  Level FlightAware ADS-B
Fri 02:46:58 PM 46.9460 -75.9260 248° West 392 451 38,000  Level FlightAware ADS-B
Fri 02:47:34 PM 46.9250 -75.9990 247° West 392 451 38,000  Level FlightAware ADS-B
Fri 02:48:04 PM 46.9120 -76.0430 247° West 392 451 38,000  Level FlightAware ADS-B
Fri 02:48:40 PM 46.8900 -76.1180 247° West 392 451 38,000  Level FlightAware ADS-B
Fri 02:49:10 PM 46.8750 -76.1730 248° West 392 451 38,000  Level FlightAware ADS-B
Fri 02:49:40 PM 46.8550 -76.2390 246° West 392 451 38,000  Level FlightAware ADS-B
Fri 02:50:10 PM 46.8380 -76.2980 247° West 392 451 38,000  Level FlightAware ADS-B
Fri 02:51:04 PM 46.7440 -76.6190 247° West 391 450 38,000  Level FlightAware ADS-B
Fri 02:51:36 PM 46.7280 -76.6720 246° West 391 450 38,000  Level FlightAware ADS-B
Fri 02:52:12 PM 46.7090 -76.7350 246° West 390 449 38,000  Level FlightAware ADS-B
Fri 02:52:52 PM 46.6890 -76.8040 247° West 390 449 38,000  Level FlightAware ADS-B
Fri 02:55:44 PM 46.6120 -77.0600 246° West 386 444 38,000  Level FlightAware ADS-B
Fri 02:56:20 PM 46.5800 -77.1670 247° West 385 443 38,000  Level FlightAware ADS-B
Fri 02:56:56 PM 46.5640 -77.2170 245° Southwest 385 443 38,000  Level FlightAware ADS-B
Fri 02:57:35 PM 46.4500 -77.5500 245° Southwest 380 437 38,000  Level Montreal Center
Fri 02:58:35 PM 46.4000 -77.7000 244° Southwest 380 437 38,000  Level Montreal Center
Fri 02:59:36 PM 46.3667 -77.8167 248° West 380 437 38,000  Level Toronto Center
Fri 03:00:35 PM 46.3333 -77.9833 254° West 370 426 38,000  Level Montreal Center
Fri 03:01:35 PM 46.2833 -78.1000 238° Southwest 370 426 38,000  Level Montreal Center
Fri 03:02:36 PM 46.2333 -78.2167 238° Southwest 370 426 38,000  Level Toronto Center
Fri 03:03:36 PM 46.1833 -78.3500 242° Southwest 370 426 38,000  Level Toronto Center
Fri 03:04:36 PM 46.1500 -78.5000 252° West 370 426 38,000  Level Toronto Center
Fri 03:05:36 PM 46.1167 -78.6167 248° West 370 426 38,000  Level Toronto Center
Fri 03:06:36 PM 46.0667 -78.7667 244° Southwest 370 426 38,000  Level Toronto Center
Fri 03:07:36 PM 46.0333 -78.8833 248° West 370 426 38,000  Level Toronto Center
Fri 03:08:36 PM 45.9833 -79.0000 238° Southwest 360 414 38,000  Level Toronto Center
Fri 03:09:36 PM 45.9333 -79.1500 244° Southwest 360 414 38,000  Level Toronto Center
Fri 03:10:36 PM 45.9000 -79.2667 248° West 360 414 38,000  Level Toronto Center
Fri 03:11:36 PM 45.8500 -79.4167 244° Southwest 360 414 38,000  Level Toronto Center
Fri 03:12:36 PM 45.8000 -79.5333 238° Southwest 360 414 38,000  Level Toronto Center
Fri 03:13:36 PM 45.7667 -79.6500 248° West 360 414 38,000  Level Toronto Center
Fri 03:14:36 PM 45.7167 -79.8000 245° Southwest 360 414 38,000  Level Toronto Center
Fri 03:15:36 PM 45.6833 -79.9167 248° West 360 414 38,000  Level Toronto Center
Fri 03:16:36 PM 45.6333 -80.0667 245° Southwest 360 414 38,000  Level Toronto Center
Fri 03:17:36 PM 45.6000 -80.1833 248° West 360 414 38,000  Level Toronto Center
Fri 03:18:36 PM 45.5500 -80.3167 242° Southwest 360 414 38,000  Level Toronto Center
Fri 03:19:36 PM 45.5000 -80.4333 239° Southwest 360 414 38,000  Level Toronto Center
Fri 03:20:36 PM 45.4667 -80.5833 252° West 370 426 38,000  Level Toronto Center
Fri 03:21:36 PM 45.4167 -80.7000 239° Southwest 360 414 38,000  Level Toronto Center
Fri 03:22:36 PM 45.3667 -80.8500 245° Southwest 360 414 38,000  Level Toronto Center
Fri 03:23:36 PM 45.3167 -80.9667 239° Southwest 370 426 38,000  Level Toronto Center
Fri 03:24:36 PM 45.2667 -81.1000 242° Southwest 360 414 38,000  Level Toronto Center
Fri 03:25:36 PM 45.2167 -81.2167 239° Southwest 360 414 38,000  Level Toronto Center
Fri 03:26:36 PM 45.1833 -81.3667 253° West 360 414 38,000  Level Toronto Center
Fri 03:27:36 PM 45.1500 -81.4833 248° West 360 414 38,000  Level Toronto Center
Fri 03:28:36 PM 45.1000 -81.6167 242° Southwest 360 414 38,000  Level Toronto Center
Fri 03:29:36 PM 45.0500 -81.7333 239° Southwest 360 414 38,000  Level Toronto Center
Fri 03:30:36 PM 45.0000 -81.8667 242° Southwest 370 426 38,000  Level Toronto Center
Fri 03:31:36 PM 44.9500 -81.9833 239° Southwest 370 426 38,000  Level Toronto Center
Fri 03:32:36 PM 44.9000 -82.1000 239° Southwest 370 426 38,000  Level Toronto Center
Fri 03:33:36 PM 44.8667 -82.2500 253° West 370 426 38,000  Level Toronto Center
Fri 03:34:36 PM 44.8167 -82.3833 242° Southwest 370 426 38,000  Level Toronto Center
Fri 03:35:36 PM 44.7667 -82.5000 239° Southwest 370 426 38,000  Level Toronto Center
Fri 03:36:36 PM 44.7167 -82.6333 242° Southwest 370 426 38,000  Level Toronto Center
Fri 03:37:15 PM 44.6994 -82.7111 253° West 368 423 38,000  Level Minneapolis Center
Fri 03:38:17 PM 44.6514 -82.8358 242° Southwest 365 420 38,000 -48 Level Minneapolis Center
Fri 03:39:19 PM 44.6019 -82.9594 241° Southwest 363 418 37,900 -48 Descending Minneapolis Center
Fri 03:40:21 PM 44.5544 -83.0847 242° Southwest 364 419 37,900  Level Minneapolis Center
Fri 03:41:22 PM 44.4964 -83.2339 241° Southwest 364 419 37,900 49 Level Minneapolis Center
Fri 03:42:24 PM 44.4486 -83.3583 242° Southwest 363 418 38,000  Climbing Minneapolis Center
Fri 03:43:26 PM 44.4003 -83.4817 241° Southwest 362 417 37,900 -48 Descending Minneapolis Center
Fri 03:44:28 PM 44.3517 -83.6047 241° Southwest 362 417 37,900  Level Minneapolis Center
Fri 03:45:29 PM 44.3025 -83.7272 241° Southwest 362 417 37,900  Level Minneapolis Center
Fri 03:46:31 PM 44.2528 -83.8503 241° Southwest 363 418 37,900  Level Minneapolis Center
Fri 03:47:33 PM 44.2031 -83.9728 241° Southwest 363 418 37,900 -581 Level Minneapolis Center
Fri 03:48:35 PM 44.1456 -84.1203 242° Southwest 362 417 36,700 -823 Descending Minneapolis Center
Fri 03:49:37 PM 44.0956 -84.2411 240° Southwest 360 414 36,200 -629 Descending Minneapolis Center
Fri 03:50:39 PM 44.0492 -84.3586 241° Southwest 350 403 35,400 -726 Descending Minneapolis Center
Fri 03:51:41 PM 44.0011 -84.4736 240° Southwest 346 398 34,700 -732 Descending Minneapolis Center
Fri 03:52:42 PM 43.9531 -84.5917 241° Southwest 336 387 33,900 -780 Descending Minneapolis Center
Fri 03:53:44 PM 43.9086 -84.7008 241° Southwest 329 379 33,100 -774 Descending Minneapolis Center
Fri 03:54:46 PM 43.8619 -84.8136 240° Southwest 334 384 32,300 -726 Descending Minneapolis Center
Fri 03:55:48 PM 43.8147 -84.9272 240° Southwest 340 391 31,600 -774 Descending Minneapolis Center
Fri 03:56:50 PM 43.7614 -85.0411 237° Southwest 348 400 30,700 -1,016 Descending Minneapolis Center
Fri 03:57:52 PM 43.6428 -85.1200 206° Southwest 393 452 29,500 -1,043 Descending Minneapolis Center
Fri 03:58:45 PM 43.5561 -85.1556 197° South 407 468 28,700 -783 Descending Chicago Center
Fri 03:59:47 PM 43.4650 -85.2181 206° Southwest 370 426 28,000 -484 Descending Chicago Center
Fri 04:00:49 PM 43.4031 -85.3225 231° Southwest 356 410 27,700 -912 Descending Chicago Center
Fri 04:01:52 PM 43.3397 -85.4464 235° Southwest 332 382 26,100 -816 Descending Chicago Center
Fri 04:02:54 PM 43.2878 -85.5450 234° Southwest 323 372 26,000 -48 Descending Chicago Center
Fri 04:03:56 PM 43.2364 -85.6447 235° Southwest 321 369 26,000  Level Chicago Center
Fri 04:04:58 PM 43.1842 -85.7456 235° Southwest 323 372 26,000  Level Chicago Center
Fri 04:06:00 PM 43.1317 -85.8453 234° Southwest 325 374 26,000 -387 Level Chicago Center
Fri 04:07:02 PM 43.0711 -85.9633 235° Southwest 326 375 25,200 -919 Descending Chicago Center
Fri 04:08:04 PM 43.0181 -86.0617 234° Southwest 335 386 24,100 -1,113 Descending Chicago Center
Fri 04:09:06 PM 42.9639 -86.1658 235° Southwest 338 389 22,900 -1,161 Descending Chicago Center
Fri 04:10:08 PM 42.9092 -86.2678 234° Southwest 335 386 21,700 -1,306 Descending Chicago Center
Fri 04:11:10 PM 42.8450 -86.3883 234° Southwest 329 379 20,200 -1,403 Descending Chicago Center
Fri 04:12:12 PM 42.7906 -86.4889 234° Southwest 330 380 18,800 -1,306 Descending Chicago Center
Fri 04:13:14 PM 42.7344 -86.5936 234° Southwest 342 394 17,500 -1,392 Descending Chicago Center
Fri 04:14:17 PM 42.6767 -86.7022 234° Southwest 354 407 15,900 -1,584 Descending Chicago Center
Fri 04:15:19 PM 42.6181 -86.8097 233° Southwest 355 409 14,200 -1,742 Descending Chicago Center
Fri 04:16:21 PM 42.5619 -86.9172 235° Southwest 350 403 12,300 -1,887 Descending Chicago Center
Fri 04:17:23 PM 42.4914 -87.0453 233° Southwest 353 406 10,300 -1,113 Descending Chicago Center
Fri 04:18:25 PM 42.4411 -87.1567 239° Southwest 345 397 10,000 -387 Descending Chicago Center
Fri 04:19:27 PM 42.4131 -87.2625 250° West 302 348 9,500 -484 Descending Chicago Center
Fri 04:20:29 PM 42.3450 -87.3014 203° Southwest 304 350 9,000 -677 Descending Chicago Center
Fri 04:21:31 PM 42.2506 -87.2903 175° South 293 337 8,100 -968 Descending Chicago Center
Fri 04:22:33 PM 42.1675 -87.2817 176° South 296 341 7,000 -532 Descending Chicago Center
Fri 04:23:35 PM 42.0925 -87.2361 156° South 297 342 7,000  Level Chicago Center
Fri 04:24:37 PM 42.0172 -87.2011 161° South 285 328 7,000  Level Chicago Center
Fri 04:25:39 PM 41.9525 -87.2117 187° South 245 282 7,000  Level Chicago Center
Fri 04:26:42 PM 41.9539 -87.2864 271° West 212 244 7,000  Level Chicago Center
Fri 04:27:44 PM 41.9803 -87.3725 292° West 210 242 7,000  Level Chicago Center
Fri 04:28:46 PM 41.9806 -87.4542 270° West 215 247 7,000 -194 Level Chicago Center
Fri 04:29:48 PM 41.9831 -87.5242 273° West 203 234 6,600 -823 Descending Chicago Center
Fri 04:30:50 PM 41.9833 -87.5908 270° West 185 213 5,300 -1,113 Descending Chicago Center
Fri 04:31:52 PM 41.9839 -87.6614 271° West 187 215 4,300 -1,113 Descending Chicago Center
Fri 04:32:54 PM 41.9844 -87.7422 271° West 185 213 3,000 -1,113 Descending Chicago Center
Fri 04:33:56 PM 41.9836 -87.8056 269° West 180 207 2,000 -768 Descending Chicago Center
Fri 04:34:59 PM 41.9842 -87.8639 271° West 169 194 1,400 -571 Descending Chicago Center

Login

Don't have an account? Register now (free) for customized features, flight alerts, and more!